METAR Data
IDs: Format: Raw Decoded Include TAF

Data at: 0623 UTC 23 Feb 2019

PAFA 230553Z 03004KT 10SM CLR M23/M25 A3039 RMK AO2 SLP311 T12331250 11122 21233 58003 PNO
PAFA 230453Z 04003KT 10SM CLR M20/M22 A3041 RMK AO2 SLP315 T12001222 PNO
PAFA 230353Z COR 01004KT 10SM FEW100 M20/M22 A3041 RMK AO2 SLP315 T12001222 PNO
PAFA 230253Z 04004KT 10SM FEW050 FEW100 SCT200 M19/M21 A3040 RMK AO2 SLP313 T11941211 58008 PNO
PAFA 230153Z 35003KT 10SM FEW025 FEW050 SCT200 M17/M19 A3042 RMK AO2 SLP320 T11671189 PNO
PAFA 230053Z 05005KT 10SM FEW014 BKN026 BKN035 M12/M16 A3041 RMK AO2 SLP314 T11221161 PNO
PAFA 222353Z 00000KT 10SM FEW014 BKN026 BKN035 M13/M17 A3043 RMK AO2 SNE50 SLP320 T11331172 11133 21239 58001 PNO
PAFA 222253Z 05003KT 10SM -SN SCT014 BKN026 OVC035 M15/M18 A3043 RMK AO2 SLP321 T11501178 PNO
PAFA 222153Z 00000KT 10SM -SN SCT014 BKN028 OVC035 M15/M19 A3043 RMK AO2 SLP324 T11501189 PNO
PAFA 222053Z 02004KT 5SM -SN BR SCT014 BKN024 OVC032 M17/M21 A3043 RMK AO2 SLP322 T11721211 51012 PNO
PAFA 222031Z 00000KT 3SM -SN BR BKN013 BKN024 OVC035 M18/M22 A3043 RMK AO2 T11831217 PNO
PAFA 221953Z 00000KT 1 1/2SM R02L/5000VP6000FT -SN BR BKN013 OVC022 M19/M23 A3043 RMK AO2 SLP322 T11941228 PNO
PAFA 221934Z 03003KT 1 1/2SM R02L/4500VP6000FT -SN BR BKN013 OVC022 M19/M24 A3042 RMK AO2 T11941239 PNO
PAFA 221853Z 31003KT 7SM -SN BKN013 OVC025 M21/M25 A3042 RMK AO2 SNB11 SLP318 T12111250 PNO
PAFA 221753Z 00000KT 10SM BKN012 BKN024 OVC075 M24/M28 A3040 RMK AO2 SLP311 T12391278 11239 21294 53010 PNO
PAFA 221653Z 00000KT 10SM SCT012 BKN022 BKN075 M28/M32 A3039 RMK AO2 SLP308 T12831322 PNO
PAFA 221638Z 00000KT 10SM SCT013 BKN022 BKN075 M28/M32 A3038 RMK AO2 T12831322 PNO
PAFA 221553Z 05003KT 10SM FEW007 FEW075 M28/M32 A3038 RMK AO2 SLP304 T12781317 PNO
PAFA 221453Z 01004KT 10SM FEW007 FEW075 M28/M32 A3037 RMK AO2 SNE53 SLP300 T12831317 53014 PNO
PAFA 221353Z 00000KT 10SM -SN FEW007 FEW075 M28/M32 A3035 RMK AO2 SLP296 -SN IC T12781317 PNO
PAFA 221253Z 00000KT 10SM -SN FEW007 FEW075 M28/M32 A3034 RMK AO2 SNB51 SLP289 -SN IC T12831317 PNO
PAFA 221153Z COR 00000KT 10SM FEW007 M27/M30 A3033 RMK AO2 SLP285 T12671300 11228 21289 51020 PNO
PAFA 221053Z 03003KT 10SM FEW007 M28/M31 A3031 RMK AO2 SLP279 T12781306 PNO
PAFA 221044Z 03004KT 10SM FEW007 M29/M32 A3031 RMK AO2 T12891317 PNO
PAFA 220953Z 00000KT 10SM CLR M28/M31 A3029 RMK AO2 SLP275 T12831311 PNO
PAFA 220853Z 03003KT 10SM CLR M24/M28 A3027 RMK AO2 SLP265 T12441278 411061267 51029 PNO
PAFA 220753Z 00000KT 10SM CLR M26/M29 A3024 RMK AO2 SLP256 T12611289 PNO
PAFA 220653Z 00000KT 10SM CLR M25/M28 A3021 RMK AO2 SLP248 T12501278 PNO
PAFA 220553Z 00000KT 10SM CLR M24/M27 A3018 RMK AO2 SLP238 T12391267 11106 21250 51019 PNO
PAFA 220453Z 00000KT 10SM CLR M23/M25 A3017 RMK AO2 SLP233 T12331250 PNO
PAFA 220353Z 00000KT 10SM CLR M19/M22 A3014 RMK AO2 SLP224 T11941222 PNO
PAFA 220253Z 20004KT 10SM FEW075 FEW200 M16/M21 A3012 RMK AO2 SLP215 T11561206 53022 PNO
PAFA 220153Z 19005KT 10SM FEW075 FEW200 M14/M19 A3010 RMK AO2 SLP208 T11391194 PNO
PAFA 220053Z 20006KT 10SM FEW075 FEW200 M11/M18 A3007 RMK AO2 SLP198 T11111178 PNO
PAFA 212353Z 20005KT 10SM FEW075 FEW200 M11/M18 A3006 RMK AO2 SLP192 T11061178 11106 21233 52017 PNO
PAFA 212253Z 20006KT 10SM FEW075 FEW200 M12/M18 A3004 RMK AO2 SLP185 T11171178 PNO
PAFA 212153Z 19005KT 10SM FEW075 SCT200 M13/M18 A3002 RMK AO2 SLP181 T11281178 PNO
PAFA 212053Z 00000KT 10SM FEW075 SCT200 M15/M19 A3001 RMK AO2 SLP175 T11501189 53020 PNO
PAFA 211953Z 06005KT 10SM FEW075 FEW200 M17/M19 A2998 RMK AO2 SLP168 T11671194 PNO
PAFA 211853Z 00000KT 10SM FEW075 SCT200 M21/M23 A2996 RMK AO2 SLP161 T12061228 PNO